createdAt,value
2016-04-14T00:00:51.486Z,0
2016-04-14T00:01:51.410Z,0
2016-04-14T00:02:51.444Z,0
2016-04-14T00:03:51.462Z,0
2016-04-14T00:04:51.465Z,0
2016-04-14T00:05:51.452Z,0
2016-04-14T00:06:51.439Z,0
2016-04-14T00:07:51.457Z,0
2016-04-14T00:08:51.474Z,0
2016-04-14T00:09:51.461Z,0
2016-04-14T00:10:51.479Z,0
2016-04-14T00:11:51.466Z,0
2016-04-14T00:12:51.453Z,0
2016-04-14T00:13:51.440Z,0
2016-04-14T00:14:51.427Z,0
2016-04-14T00:15:51.446Z,0
2016-04-14T00:16:51.432Z,0
2016-04-14T00:17:51.420Z,0
2016-04-14T00:18:51.438Z,0
2016-04-14T00:19:51.441Z,0
2016-04-14T00:20:51.428Z,0
2016-04-14T00:21:51.462Z,0
2016-04-14T00:22:51.418Z,0
2016-04-14T00:23:51.451Z,0
2016-04-14T00:24:51.470Z,0
2016-04-14T00:25:51.441Z,0
2016-04-14T00:26:51.491Z,0
2016-04-14T00:27:51.447Z,0
2016-04-14T00:28:51.449Z,0
2016-04-14T00:29:51.437Z,0
2016-04-14T00:30:51.423Z,0
2016-04-14T00:31:51.441Z,0
2016-04-14T00:32:51.289Z,0
2016-04-14T00:33:51.494Z,0
2016-04-14T00:34:51.434Z,0
2016-04-14T00:35:51.504Z,0
2016-04-14T00:36:51.321Z,0
2016-04-14T00:37:51.121Z,0
2016-04-14T00:38:51.452Z,0
2016-04-14T00:39:51.407Z,0
2016-04-14T00:40:51.441Z,0
2016-04-14T00:41:51.460Z,0
2016-04-14T00:42:51.415Z,0
2016-04-14T00:43:51.418Z,0
2016-04-14T00:44:51.452Z,0
2016-04-14T00:45:51.424Z,0
2016-04-14T00:46:51.427Z,0
2016-04-14T00:47:51.632Z,0
2016-04-14T00:48:51.479Z,0
2016-04-14T00:49:51.435Z,0
2016-04-14T00:50:51.406Z,0
2016-04-14T00:51:51.424Z,0
2016-04-14T00:52:51.428Z,0
2016-04-14T00:53:51.430Z,0
2016-04-14T00:54:51.433Z,0
2016-04-14T00:55:51.419Z,0
2016-04-14T00:56:51.391Z,0
2016-04-14T00:57:51.425Z,0
2016-04-14T00:58:51.427Z,0
2016-04-14T00:59:51.430Z,0
2016-04-14T01:00:51.402Z,0
2016-04-14T01:01:51.419Z,0
2016-04-14T01:02:51.391Z,0
2016-04-14T01:03:54.425Z,0
2016-04-14T01:04:51.412Z,0
2016-04-14T01:05:51.400Z,0
2016-04-14T01:06:51.418Z,0
2016-04-14T01:07:54.421Z,0
2016-04-14T01:08:51.423Z,0
2016-04-14T01:09:51.426Z,0
2016-04-14T01:10:51.429Z,0
2016-04-14T01:11:51.431Z,0
2016-04-14T01:12:51.434Z,0
2016-04-14T01:13:51.421Z,0
2016-04-14T01:14:51.407Z,0
2016-04-14T01:15:51.426Z,0
2016-04-14T01:16:51.445Z,0
2016-04-14T01:17:51.494Z,0
2016-04-14T01:18:51.678Z,0
2016-04-14T01:19:51.447Z,0
2016-04-14T01:20:51.403Z,0
2016-04-14T01:21:51.405Z,0
2016-04-14T01:22:51.267Z,0
2016-04-14T01:23:51.395Z,0
2016-04-14T01:24:51.429Z,0
2016-04-14T01:25:51.416Z,0
2016-04-14T01:26:51.435Z,0
2016-04-14T01:27:51.280Z,0
2016-04-14T01:28:51.455Z,0
2016-04-14T01:29:51.411Z,0
2016-04-14T01:30:51.460Z,0
2016-04-14T01:31:51.542Z,0
2016-04-14T01:32:51.810Z,0
2016-04-14T01:33:51.454Z,0
2016-04-14T01:34:51.377Z,0
2016-04-14T01:35:54.427Z,0
2016-04-14T01:36:51.415Z,0
2016-04-14T01:37:51.385Z,0
2016-04-14T01:38:51.388Z,0
2016-04-14T01:39:51.438Z,0
2016-04-14T01:40:51.378Z,0
2016-04-14T01:41:51.396Z,0
2016-04-14T01:42:51.399Z,0
2016-04-14T01:43:51.387Z,0
2016-04-14T01:44:51.451Z,0
2016-04-14T01:45:51.361Z,0
2016-04-14T01:46:51.425Z,0
2016-04-14T01:47:51.428Z,0
2016-04-14T01:48:51.431Z,0
2016-04-14T01:49:51.372Z,0
2016-04-14T01:50:51.389Z,0
2016-04-14T01:51:51.392Z,0
2016-04-14T01:52:51.395Z,0
2016-04-14T01:53:51.413Z,0
2016-04-14T01:54:51.369Z,0
2016-04-14T01:55:51.621Z,0
2016-04-14T01:56:51.375Z,0
2016-04-14T01:57:54.377Z,0
2016-04-14T01:58:51.380Z,0
2016-04-14T01:59:51.383Z,0
2016-04-14T02:00:51.416Z,0
2016-04-14T02:01:51.388Z,0
2016-04-14T02:02:51.453Z,0
2016-04-14T02:03:51.455Z,0
2016-04-14T02:04:51.380Z,0
2016-04-14T02:05:51.382Z,0
2016-04-14T02:06:51.370Z,0
2016-04-14T02:07:51.373Z,0
2016-04-14T02:08:51.391Z,0
2016-04-14T02:09:51.378Z,0
2016-04-14T02:10:51.428Z,0
2016-04-14T02:11:51.211Z,0
2016-04-14T02:12:51.370Z,0
2016-04-14T02:13:51.373Z,0
2016-04-14T02:14:51.376Z,0
2016-04-14T02:15:51.379Z,0
2016-04-14T02:16:51.382Z,0
2016-04-14T02:17:51.384Z,0
2016-04-14T02:18:51.370Z,0
2016-04-14T02:19:51.390Z,0
2016-04-14T02:20:51.392Z,0
2016-04-14T02:21:51.379Z,0
2016-04-14T02:22:51.398Z,0
2016-04-14T02:23:51.369Z,0
2016-04-14T02:24:51.356Z,0
2016-04-14T02:25:51.374Z,0
2016-04-14T02:26:51.330Z,0
2016-04-14T02:27:51.332Z,0
2016-04-14T02:28:51.367Z,0
2016-04-14T02:29:51.369Z,0
2016-04-14T02:30:51.324Z,0
2016-04-14T02:31:51.375Z,0
2016-04-14T02:32:51.346Z,0
2016-04-14T02:33:51.333Z,0
2016-04-14T02:34:51.352Z,0
2016-04-14T02:35:51.338Z,0
2016-04-14T02:36:51.373Z,0
2016-04-14T02:37:51.329Z,0
2016-04-14T02:38:51.378Z,0
2016-04-14T02:39:51.365Z,0
2016-04-14T02:40:51.352Z,0
2016-04-14T02:41:51.354Z,0
2016-04-14T02:42:51.342Z,0
2016-04-14T02:43:51.329Z,0
2016-04-14T02:44:51.315Z,0
2016-04-14T02:45:51.350Z,0
2016-04-14T02:46:51.337Z,0
2016-04-14T02:47:51.339Z,0
2016-04-14T02:48:51.311Z,0
2016-04-14T02:49:51.329Z,0
2016-04-14T02:50:51.316Z,0
2016-04-14T02:51:51.320Z,0
2016-04-14T02:52:51.322Z,0
2016-04-14T02:53:51.309Z,0
2016-04-14T02:54:51.311Z,0
2016-04-14T02:55:51.377Z,0
2016-04-14T02:56:51.302Z,0
2016-04-14T02:57:51.304Z,0
2016-04-14T02:58:51.338Z,0
2016-04-14T02:59:51.325Z,0
2016-04-14T03:00:51.281Z,0
2016-04-14T03:01:51.299Z,0
2016-04-14T03:02:51.286Z,0
2016-04-14T03:03:51.320Z,0
2016-04-14T03:04:51.324Z,0
2016-04-14T03:05:51.341Z,0
2016-04-14T03:06:51.296Z,0
2016-04-14T03:07:51.300Z,0
2016-04-14T03:08:51.287Z,0
2016-04-14T03:09:51.321Z,0
2016-04-14T03:10:51.354Z,0
2016-04-14T03:11:51.279Z,0
2016-04-14T03:12:51.250Z,0
2016-04-14T03:13:51.285Z,0
2016-04-14T03:14:51.271Z,0
2016-04-14T03:15:51.289Z,0
2016-04-14T03:16:51.277Z,0
2016-04-14T03:17:51.295Z,0
2016-04-14T03:18:51.282Z,0
2016-04-14T03:19:51.254Z,0
2016-04-14T03:20:51.241Z,0
2016-04-14T03:21:51.259Z,0
2016-04-14T03:22:51.247Z,0
2016-04-14T03:23:51.264Z,0
2016-04-14T03:24:51.252Z,0
2016-04-14T03:25:51.458Z,0
2016-04-14T03:26:51.241Z,0
2016-04-14T03:27:51.276Z,0
2016-04-14T03:28:51.247Z,0
2016-04-14T03:29:51.219Z,0
2016-04-14T03:30:51.252Z,0
2016-04-14T03:31:51.255Z,0
2016-04-14T03:32:51.211Z,0
2016-04-14T03:33:51.229Z,0
2016-04-14T03:34:51.247Z,0
2016-04-14T03:35:51.234Z,0
2016-04-14T03:36:51.237Z,0
2016-04-14T03:37:51.224Z,0
2016-04-14T03:38:51.211Z,0
2016-04-14T03:39:51.229Z,0
2016-04-14T03:40:51.420Z,0
2016-04-14T03:41:51.219Z,0
2016-04-14T03:42:51.237Z,0
2016-04-14T03:43:51.224Z,0
2016-04-14T03:44:51.212Z,0
2016-04-14T03:45:51.214Z,0
2016-04-14T03:46:51.202Z,0
2016-04-14T03:47:51.189Z,0
2016-04-14T03:48:51.191Z,0
2016-04-14T03:49:51.210Z,0
2016-04-14T03:50:51.181Z,0
2016-04-14T03:51:51.200Z,0
2016-04-14T03:52:51.202Z,0
2016-04-14T03:53:51.205Z,0
2016-04-14T03:54:51.192Z,0
2016-04-14T03:55:51.414Z,0
2016-04-14T03:56:51.195Z,0
2016-04-14T03:57:51.166Z,0
2016-04-14T03:58:51.199Z,0
2016-04-14T03:59:51.186Z,0
2016-04-14T04:00:51.158Z,0
2016-04-14T04:01:51.255Z,0
2016-04-14T04:02:51.179Z,0
2016-04-14T04:03:51.166Z,0
2016-04-14T04:04:50.997Z,0
2016-04-14T04:05:51.155Z,0
2016-04-14T04:06:51.174Z,0
2016-04-14T04:07:51.161Z,0
2016-04-14T04:08:51.179Z,0
2016-04-14T04:09:51.152Z,0
2016-04-14T04:10:51.138Z,0
2016-04-14T04:11:51.171Z,0
2016-04-14T04:12:51.316Z,0
2016-04-14T04:13:51.162Z,0
2016-04-14T04:14:51.165Z,0
2016-04-14T04:15:51.152Z,0
2016-04-14T04:16:51.154Z,0
2016-04-14T04:17:51.173Z,0
2016-04-14T04:18:51.145Z,0
2016-04-14T04:19:54.165Z,0
2016-04-14T04:20:51.165Z,0
2016-04-14T04:21:51.153Z,0
2016-04-14T04:22:51.156Z,0
2016-04-14T04:23:51.126Z,0
2016-04-14T04:24:51.161Z,0
2016-04-14T04:25:51.116Z,0
2016-04-14T04:26:51.166Z,0
2016-04-14T04:27:51.122Z,0
2016-04-14T04:28:51.125Z,0
2016-04-14T04:29:51.127Z,0
2016-04-14T04:30:51.129Z,0
2016-04-14T04:31:51.133Z,0
2016-04-14T04:32:51.135Z,0
2016-04-14T04:33:51.106Z,0
2016-04-14T04:34:51.125Z,0
2016-04-14T04:35:51.127Z,0
2016-04-14T04:36:51.114Z,0
2016-04-14T04:37:51.117Z,0
2016-04-14T04:38:51.135Z,0
2016-04-14T04:39:51.122Z,0
2016-04-14T04:40:51.140Z,0
2016-04-14T04:41:51.127Z,0
2016-04-14T04:42:50.959Z,5
2016-04-14T04:43:51.102Z,5
2016-04-14T04:44:51.104Z,5
2016-04-14T04:45:51.107Z,5
2016-04-14T04:46:51.110Z,5
2016-04-14T04:47:51.128Z,5
2016-04-14T04:48:51.084Z,5
2016-04-14T04:49:51.415Z,5
2016-04-14T04:50:51.089Z,5
2016-04-14T04:51:51.420Z,5
2016-04-14T04:52:51.111Z,5
2016-04-14T04:53:51.114Z,5
2016-04-14T04:54:51.147Z,5
2016-04-14T04:55:51.259Z,5
2016-04-14T04:56:51.075Z,5
2016-04-14T04:57:51.092Z,5
2016-04-14T04:58:51.080Z,10
2016-04-14T04:59:51.082Z,10
2016-04-14T05:00:51.100Z,10
2016-04-14T05:01:51.089Z,10
2016-04-14T05:02:51.106Z,10
2016-04-14T05:03:51.108Z,10
2016-04-14T05:04:51.081Z,10
2016-04-14T05:05:51.114Z,10
2016-04-14T05:06:51.617Z,10
2016-04-14T05:07:51.072Z,15
2016-04-14T05:08:51.122Z,15
2016-04-14T05:09:50.968Z,15
2016-04-14T05:10:51.081Z,20
2016-04-14T05:11:51.099Z,20
2016-04-14T05:12:51.086Z,25
2016-04-14T05:13:51.103Z,25
2016-04-14T05:14:51.150Z,25
2016-04-14T05:15:51.197Z,25
2016-04-14T05:16:51.213Z,20
2016-04-14T05:17:51.261Z,20
2016-04-14T05:18:51.314Z,20
2016-04-14T05:19:51.334Z,20
2016-04-14T05:20:50.602Z,25
2016-04-14T05:21:51.340Z,25
2016-04-14T05:22:51.343Z,30
2016-04-14T05:23:51.390Z,30
2016-04-14T05:24:51.586Z,35
2016-04-14T05:25:51.406Z,35
2016-04-14T05:26:51.399Z,40
2016-04-14T05:27:51.392Z,40
2016-04-14T05:28:51.697Z,45
2016-04-14T05:29:51.436Z,45
2016-04-14T05:30:51.409Z,45
2016-04-14T05:31:50.649Z,45
2016-04-14T05:32:51.389Z,50
2016-04-14T05:33:51.393Z,50
2016-04-14T05:34:51.380Z,50
2016-04-14T05:35:51.400Z,55
2016-04-14T05:36:51.435Z,55
2016-04-14T05:37:51.407Z,55
2016-04-14T05:38:51.425Z,60
2016-04-14T05:39:51.381Z,55
2016-04-14T05:40:51.400Z,55
2016-04-14T05:41:51.449Z,60
2016-04-14T05:42:51.389Z,60
2016-04-14T05:43:51.391Z,60
2016-04-14T05:44:51.394Z,60
2016-04-14T05:45:51.382Z,65
2016-04-14T05:46:51.385Z,65
2016-04-14T05:47:51.403Z,70
2016-04-14T05:48:51.390Z,70
2016-04-14T05:49:51.377Z,75
2016-04-14T05:50:51.380Z,80
2016-04-14T05:51:51.398Z,90
2016-04-14T05:52:51.370Z,120
2016-04-14T05:53:51.404Z,155
2016-04-14T05:54:51.375Z,135
2016-04-14T05:55:51.393Z,90
2016-04-14T05:56:51.364Z,95
2016-04-14T05:57:51.414Z,85
2016-04-14T05:58:51.354Z,90
2016-04-14T05:59:51.389Z,85
2016-04-14T06:00:51.392Z,85
2016-04-14T06:01:51.409Z,85
2016-04-14T06:02:51.397Z,85
2016-04-14T06:03:51.384Z,85
2016-04-14T06:04:51.402Z,85
2016-04-14T06:05:51.405Z,85
2016-04-14T06:06:51.391Z,85
2016-04-14T06:07:51.410Z,90
2016-04-14T06:08:51.365Z,90
2016-04-14T06:09:51.415Z,95
2016-04-14T06:10:51.386Z,95
2016-04-14T06:11:51.388Z,95
2016-04-14T06:12:51.407Z,95
2016-04-14T06:13:51.379Z,100
2016-04-14T06:14:51.396Z,105
2016-04-14T06:15:54.402Z,115
2016-04-14T06:16:51.418Z,125
2016-04-14T06:17:51.405Z,125
2016-04-14T06:18:51.423Z,125
2016-04-14T06:19:54.413Z,125
2016-04-14T06:20:51.413Z,120
2016-04-14T06:21:51.385Z,120
2016-04-14T06:22:51.403Z,125
2016-04-14T06:23:51.390Z,125
2016-04-14T06:24:51.581Z,125
2016-04-14T06:25:51.380Z,120
2016-04-14T06:26:51.383Z,120
2016-04-14T06:27:51.229Z,120
2016-04-14T06:28:51.404Z,115
2016-04-14T06:29:51.391Z,120
2016-04-14T06:30:51.393Z,120
2016-04-14T06:31:51.412Z,125
2016-04-14T06:32:51.414Z,135
2016-04-14T06:33:51.417Z,185
2016-04-14T06:34:51.403Z,185
2016-04-14T06:35:51.547Z,185
2016-04-14T06:36:51.394Z,230
2016-04-14T06:37:51.396Z,230
2016-04-14T06:38:51.414Z,215
2016-04-14T06:39:51.402Z,230
2016-04-14T06:40:51.420Z,190
2016-04-14T06:41:51.423Z,185
2016-04-14T06:42:51.425Z,195
2016-04-14T06:43:51.428Z,175
2016-04-14T06:44:51.446Z,190
2016-04-14T06:45:51.668Z,190
2016-04-14T06:46:51.436Z,255
2016-04-14T06:47:51.439Z,220
2016-04-14T06:48:51.738Z,250
2016-04-14T06:49:51.491Z,245
2016-04-14T06:50:51.275Z,185
2016-04-14T06:51:51.449Z,215
2016-04-14T06:52:51.452Z,245
2016-04-14T06:53:51.471Z,200
2016-04-14T06:54:51.458Z,205
2016-04-14T06:55:51.445Z,255
2016-04-14T06:56:51.463Z,295
2016-04-14T06:57:51.466Z,290
2016-04-14T06:58:51.688Z,235
2016-04-14T06:59:51.504Z,285
2016-04-14T07:00:51.474Z,290
2016-04-14T07:01:51.509Z,200
2016-04-14T07:02:51.465Z,205
2016-04-14T07:03:51.482Z,190
2016-04-14T07:04:51.502Z,185
2016-04-14T07:05:51.535Z,175
2016-04-14T07:06:51.518Z,175
2016-04-14T07:07:51.505Z,170
2016-04-14T07:08:51.501Z,165
2016-04-14T07:09:51.207Z,165
2016-04-14T07:10:51.542Z,175
2016-04-14T07:11:51.297Z,205
2016-04-14T07:12:51.722Z,220
2016-04-14T07:13:51.232Z,285
2016-04-14T07:14:51.532Z,290
2016-04-14T07:15:51.550Z,250
2016-04-14T07:16:51.531Z,285
2016-04-14T07:17:52.270Z,275
2016-04-14T07:18:51.554Z,265
2016-04-14T07:19:51.557Z,250
2016-04-14T07:20:51.560Z,185
2016-04-14T07:21:51.562Z,205
2016-04-14T07:22:51.549Z,225
2016-04-14T07:23:51.426Z,220
2016-04-14T07:24:51.570Z,215
2016-04-14T07:25:51.573Z,210
2016-04-14T07:26:51.731Z,210
2016-04-14T07:27:51.578Z,215
2016-04-14T07:28:51.580Z,210
2016-04-14T07:29:51.598Z,210
2016-04-14T07:30:51.601Z,195
2016-04-14T07:31:51.589Z,205
2016-04-14T07:32:51.591Z,250
2016-04-14T07:33:51.578Z,265
2016-04-14T07:34:51.612Z,270
2016-04-14T07:35:51.599Z,280
2016-04-14T07:36:51.492Z,285
2016-04-14T07:37:51.636Z,285
2016-04-14T07:38:51.608Z,280
2016-04-14T07:39:51.689Z,270
2016-04-14T07:40:51.473Z,270
2016-04-14T07:41:51.694Z,265
2016-04-14T07:42:51.634Z,250
2016-04-14T07:43:51.668Z,240
2016-04-14T07:44:51.671Z,240
2016-04-14T07:45:51.627Z,240
2016-04-14T07:46:51.504Z,245
2016-04-14T07:47:51.663Z,270
2016-04-14T07:48:51.665Z,280
2016-04-14T07:49:54.655Z,290
2016-04-14T07:50:51.671Z,290
2016-04-14T07:51:51.657Z,225
2016-04-14T07:52:51.661Z,200
2016-04-14T07:53:51.663Z,260
2016-04-14T07:54:51.666Z,295
2016-04-14T07:55:51.701Z,300
2016-04-14T07:56:52.156Z,300
2016-04-14T07:57:51.706Z,305
2016-04-14T07:58:51.692Z,305
2016-04-14T07:59:51.742Z,260
2016-04-14T08:00:51.697Z,235
2016-04-14T08:01:51.716Z,315
2016-04-14T08:02:51.734Z,310
2016-04-14T08:03:51.722Z,315
2016-04-14T08:04:51.725Z,315
2016-04-14T08:05:51.727Z,315
2016-04-14T08:06:51.730Z,315
2016-04-14T08:07:51.764Z,300
2016-04-14T08:08:51.622Z,305
2016-04-14T08:09:51.775Z,325
2016-04-14T08:10:51.778Z,345
2016-04-14T08:11:52.124Z,355
2016-04-14T08:12:51.830Z,355
2016-04-14T08:13:51.770Z,360
2016-04-14T08:14:51.804Z,355
2016-04-14T08:15:51.791Z,365
2016-04-14T08:16:51.794Z,360
2016-04-14T08:17:51.812Z,380
2016-04-14T08:18:51.800Z,385
2016-04-14T08:19:51.833Z,390
2016-04-14T08:20:51.883Z,365
2016-04-14T08:21:51.854Z,395
2016-04-14T08:22:51.841Z,340
2016-04-14T08:23:51.860Z,325
2016-04-14T08:24:51.862Z,310
2016-04-14T08:25:51.865Z,315
2016-04-14T08:26:51.976Z,310
2016-04-14T08:27:51.916Z,350
2016-04-14T08:28:51.904Z,305
2016-04-14T08:29:51.938Z,310
2016-04-14T08:30:51.910Z,305
2016-04-14T08:31:51.756Z,310
2016-04-14T08:32:51.962Z,305
2016-04-14T08:33:51.965Z,300
2016-04-14T08:34:51.951Z,315
2016-04-14T08:35:51.970Z,310
2016-04-14T08:36:51.948Z,320
2016-04-14T08:37:51.951Z,340
2016-04-14T08:38:51.954Z,330
2016-04-14T08:39:52.020Z,315
2016-04-14T08:40:52.007Z,360
2016-04-14T08:41:51.900Z,310
2016-04-14T08:42:51.997Z,305
2016-04-14T08:43:51.984Z,315
2016-04-14T08:44:52.033Z,300
2016-04-14T08:45:52.005Z,315
2016-04-14T08:46:51.257Z,330
2016-04-14T08:47:52.010Z,330
2016-04-14T08:48:52.028Z,315
2016-04-14T08:49:52.046Z,330
2016-04-14T08:50:51.721Z,325
2016-04-14T08:51:52.051Z,310
2016-04-14T08:52:52.038Z,315
2016-04-14T08:53:52.057Z,300
2016-04-14T08:54:52.044Z,310
2016-04-14T08:55:52.047Z,275
2016-04-14T08:56:52.159Z,285
2016-04-14T08:57:52.052Z,270
2016-04-14T08:58:52.070Z,240
2016-04-14T08:59:52.073Z,230
2016-04-14T09:00:52.123Z,230
2016-04-14T09:01:52.079Z,235
2016-04-14T09:02:52.082Z,250
2016-04-14T09:03:52.069Z,255
2016-04-14T09:04:52.102Z,255
2016-04-14T09:05:52.105Z,255
2016-04-14T09:06:52.077Z,260
2016-04-14T09:07:52.110Z,260
2016-04-14T09:08:52.129Z,260
2016-04-14T09:09:52.115Z,265
2016-04-14T09:10:52.165Z,265
2016-04-14T09:11:52.417Z,265
2016-04-14T09:12:52.155Z,255
2016-04-14T09:13:52.111Z,255
2016-04-14T09:14:52.144Z,265
2016-04-14T09:15:52.023Z,265
2016-04-14T09:16:52.166Z,275
2016-04-14T09:17:52.137Z,285
2016-04-14T09:18:52.125Z,290
2016-04-14T09:19:52.127Z,290
2016-04-14T09:20:52.161Z,295
2016-04-14T09:21:52.163Z,290
2016-04-14T09:22:52.166Z,290
2016-04-14T09:23:52.184Z,290
2016-04-14T09:24:52.155Z,290
2016-04-14T09:25:52.174Z,280
2016-04-14T09:26:52.052Z,285
2016-04-14T09:27:52.163Z,285
2016-04-14T09:28:52.214Z,280
2016-04-14T09:29:52.169Z,280
2016-04-14T09:30:52.157Z,275
2016-04-14T09:31:52.206Z,275
2016-04-14T09:32:52.162Z,275
2016-04-14T09:33:52.212Z,275
2016-04-14T09:34:52.198Z,275
2016-04-14T09:35:52.201Z,275
2016-04-14T09:36:52.204Z,275
2016-04-14T09:37:52.238Z,275
2016-04-14T09:38:52.210Z,275
2016-04-14T09:39:52.228Z,280
2016-04-14T09:40:52.184Z,295
2016-04-14T09:41:52.233Z,300
2016-04-14T09:42:52.064Z,305
2016-04-14T09:43:52.238Z,310
2016-04-14T09:44:52.241Z,310
2016-04-14T09:45:52.244Z,305
2016-04-14T09:46:52.246Z,300
2016-04-14T09:47:52.280Z,295
2016-04-14T09:48:52.267Z,295
2016-04-14T09:49:52.270Z,295
2016-04-14T09:50:52.288Z,305
2016-04-14T09:51:52.291Z,290
2016-04-14T09:52:52.278Z,290
2016-04-14T09:53:52.265Z,300
2016-04-14T09:54:52.268Z,300
2016-04-14T09:55:52.285Z,305
2016-04-14T09:56:52.413Z,305
2016-04-14T09:57:52.307Z,300
2016-04-14T09:58:52.419Z,295
2016-04-14T09:59:52.328Z,290
2016-04-14T10:00:52.284Z,285
2016-04-14T10:01:52.302Z,285
2016-04-14T10:02:52.305Z,290
2016-04-14T10:03:52.323Z,295
2016-04-14T10:04:52.310Z,295
2016-04-14T10:05:52.345Z,315
2016-04-14T10:06:52.315Z,280
2016-04-14T10:07:52.351Z,260
2016-04-14T10:08:52.353Z,255
2016-04-14T10:09:52.356Z,250
2016-04-14T10:10:52.359Z,255
2016-04-14T10:11:52.345Z,255
2016-04-14T10:12:52.364Z,265
2016-04-14T10:13:52.350Z,295
2016-04-14T10:14:52.353Z,295
2016-04-14T10:15:52.371Z,285
2016-04-14T10:16:52.374Z,280
2016-04-14T10:17:52.361Z,285
2016-04-14T10:18:52.380Z,290
2016-04-14T10:19:52.414Z,300
2016-04-14T10:20:52.431Z,300
2016-04-14T10:21:52.372Z,305
2016-04-14T10:22:52.390Z,315
2016-04-14T10:23:52.377Z,315
2016-04-14T10:24:52.380Z,320
2016-04-14T10:25:52.413Z,310
2016-04-14T10:26:52.385Z,310
2016-04-14T10:27:52.387Z,310
2016-04-14T10:28:52.390Z,310
2016-04-14T10:29:52.393Z,310
2016-04-14T10:30:52.443Z,315
2016-04-14T10:31:52.274Z,315
2016-04-14T10:32:52.432Z,315
2016-04-14T10:33:52.420Z,290
2016-04-14T10:34:52.423Z,275
2016-04-14T10:35:52.284Z,280
2016-04-14T10:36:52.460Z,280
2016-04-14T10:37:52.446Z,275
2016-04-14T10:38:52.449Z,305
2016-04-14T10:39:52.437Z,335
2016-04-14T10:40:52.485Z,320
2016-04-14T10:41:52.473Z,295
2016-04-14T10:42:52.475Z,285
2016-04-14T10:43:52.462Z,290
2016-04-14T10:44:52.480Z,330
2016-04-14T10:45:52.499Z,300
2016-04-14T10:46:52.470Z,285
2016-04-14T10:47:52.473Z,295
2016-04-14T10:48:52.492Z,295
2016-04-14T10:49:52.478Z,325
2016-04-14T10:50:52.872Z,275
2016-04-14T10:51:52.499Z,270
2016-04-14T10:52:52.486Z,270
2016-04-14T10:53:52.519Z,260
2016-04-14T10:54:52.522Z,255
2016-04-14T10:55:52.525Z,250
2016-04-14T10:56:52.513Z,300
2016-04-14T10:57:52.516Z,295
2016-04-14T10:58:52.518Z,290
2016-04-14T10:59:52.521Z,230
2016-04-14T11:00:52.523Z,225
2016-04-14T11:01:52.541Z,245
2016-04-14T11:02:52.544Z,225
2016-04-14T11:03:52.563Z,220
2016-04-14T11:04:52.566Z,220
2016-04-14T11:05:52.757Z,215
2016-04-14T11:06:52.587Z,215
2016-04-14T11:07:52.574Z,240
2016-04-14T11:08:52.576Z,215
2016-04-14T11:09:52.595Z,220
2016-04-14T11:10:52.582Z,225
2016-04-14T11:11:52.584Z,225
2016-04-14T11:12:52.571Z,235
2016-04-14T11:13:52.589Z,245
2016-04-14T11:14:52.577Z,245
2016-04-14T11:15:52.611Z,245
2016-04-14T11:16:52.614Z,250
2016-04-14T11:17:52.616Z,255
2016-04-14T11:18:53.041Z,260
2016-04-14T11:19:52.622Z,265
2016-04-14T11:20:52.592Z,260
2016-04-14T11:21:52.627Z,245
2016-04-14T11:22:52.629Z,230
2016-04-14T11:23:52.632Z,225
2016-04-14T11:24:52.603Z,215
2016-04-14T11:25:52.606Z,210
2016-04-14T11:26:52.641Z,215
2016-04-14T11:27:52.674Z,210
2016-04-14T11:28:52.614Z,205
2016-04-14T11:29:52.632Z,205
2016-04-14T11:30:52.651Z,205
2016-04-14T11:31:52.669Z,215
2016-04-14T11:32:52.657Z,265
2016-04-14T11:33:52.628Z,270
2016-04-14T11:34:52.661Z,265
2016-04-14T11:35:52.726Z,270
2016-04-14T11:36:52.495Z,275
2016-04-14T11:37:52.794Z,280
2016-04-14T11:38:52.594Z,290
2016-04-14T11:39:52.674Z,295
2016-04-14T11:40:52.677Z,295
2016-04-14T11:41:52.680Z,305
2016-04-14T11:42:52.667Z,310
2016-04-14T11:43:52.670Z,305
2016-04-14T11:44:52.703Z,295
2016-04-14T11:45:52.691Z,295
2016-04-14T11:46:52.677Z,290
2016-04-14T11:47:52.696Z,295
2016-04-14T11:48:52.417Z,295
2016-04-14T11:49:52.732Z,290
2016-04-14T11:50:52.709Z,265
2016-04-14T11:51:52.712Z,240
2016-04-14T11:52:52.730Z,230
2016-04-14T11:53:52.717Z,225
2016-04-14T11:54:52.735Z,225
2016-04-14T11:55:52.738Z,230
2016-04-14T11:56:52.756Z,230
2016-04-14T11:57:52.743Z,230
2016-04-14T11:58:52.745Z,275
2016-04-14T11:59:52.764Z,275
2016-04-14T12:00:52.751Z,285
2016-04-14T12:01:52.785Z,280
2016-04-14T12:02:52.742Z,265
2016-04-14T12:03:52.775Z,305
2016-04-14T12:04:52.778Z,285
2016-04-14T12:05:52.749Z,260
2016-04-14T12:06:52.767Z,270
2016-04-14T12:07:52.755Z,270
2016-04-14T12:08:52.600Z,265
2016-04-14T12:09:53.244Z,260
2016-04-14T12:10:52.777Z,255
2016-04-14T12:11:52.797Z,255
2016-04-14T12:12:52.783Z,255
2016-04-14T12:13:52.786Z,260
2016-04-14T12:14:52.804Z,265
2016-04-14T12:15:52.807Z,265
2016-04-14T12:16:52.810Z,265
2016-04-14T12:17:52.813Z,265
2016-04-14T12:18:52.800Z,265
2016-04-14T12:19:52.802Z,280
2016-04-14T12:20:52.868Z,295
2016-04-14T12:21:52.823Z,310
2016-04-14T12:22:52.857Z,320
2016-04-14T12:23:52.829Z,330
2016-04-14T12:24:52.846Z,330
2016-04-14T12:25:52.865Z,325
2016-04-14T12:26:52.852Z,320
2016-04-14T12:27:52.839Z,310
2016-04-14T12:28:52.858Z,300
2016-04-14T12:29:52.845Z,290
2016-04-14T12:30:52.863Z,285
2016-04-14T12:31:52.850Z,275
2016-04-14T12:32:52.868Z,265
2016-04-14T12:33:52.871Z,250
2016-04-14T12:34:52.873Z,240
2016-04-14T12:35:52.861Z,225
2016-04-14T12:36:52.925Z,225
2016-04-14T12:37:52.913Z,225
2016-04-14T12:38:52.900Z,225
2016-04-14T12:39:52.887Z,225
2016-04-14T12:40:52.906Z,225
2016-04-14T12:41:52.924Z,230
2016-04-14T12:42:52.927Z,225
2016-04-14T12:43:52.913Z,230
2016-04-14T12:44:52.916Z,230
2016-04-14T12:45:52.950Z,230
2016-04-14T12:46:52.906Z,230
2016-04-14T12:47:52.941Z,250
2016-04-14T12:48:52.911Z,235
2016-04-14T12:49:52.946Z,235
2016-04-14T12:50:52.916Z,235
2016-04-14T12:51:52.951Z,235
2016-04-14T12:52:52.937Z,240
2016-04-14T12:53:52.971Z,240
2016-04-14T12:54:52.959Z,230
2016-04-14T12:55:52.962Z,220
2016-04-14T12:56:52.933Z,215
2016-04-14T12:57:52.968Z,210
2016-04-14T12:58:52.954Z,205
2016-04-14T12:59:52.941Z,205
2016-04-14T13:00:52.959Z,205
2016-04-14T13:01:52.993Z,210
2016-04-14T13:02:52.980Z,215
2016-04-14T13:03:52.967Z,220
2016-04-14T13:04:52.986Z,230
2016-04-14T13:05:53.035Z,235
2016-04-14T13:06:52.992Z,245
2016-04-14T13:07:52.978Z,240
2016-04-14T13:08:52.981Z,245
2016-04-14T13:09:53.033Z,245
2016-04-14T13:10:52.864Z,250
2016-04-14T13:11:53.034Z,255
2016-04-14T13:12:53.053Z,265
2016-04-14T13:13:53.055Z,265
2016-04-14T13:14:53.011Z,255
2016-04-14T13:15:53.061Z,250
2016-04-14T13:16:52.891Z,245
2016-04-14T13:17:53.019Z,245
2016-04-14T13:18:53.036Z,240
2016-04-14T13:19:53.039Z,245
2016-04-14T13:20:53.027Z,240
2016-04-14T13:21:53.044Z,240
2016-04-14T13:22:53.048Z,225
2016-04-14T13:23:53.035Z,240
2016-04-14T13:24:53.085Z,220
2016-04-14T13:25:53.088Z,205
2016-04-14T13:26:53.091Z,195
2016-04-14T13:27:52.702Z,190
2016-04-14T13:28:53.096Z,185
2016-04-14T13:29:53.082Z,175
2016-04-14T13:30:53.085Z,170
2016-04-14T13:31:53.087Z,170
2016-04-14T13:32:53.091Z,170
2016-04-14T13:33:53.109Z,170
2016-04-14T13:34:53.096Z,170
2016-04-14T13:35:53.099Z,175
2016-04-14T13:36:53.148Z,175
2016-04-14T13:37:53.151Z,175
2016-04-14T13:38:53.137Z,175
2016-04-14T13:39:53.156Z,175
2016-04-14T13:40:53.128Z,170
2016-04-14T13:41:53.162Z,170
2016-04-14T13:42:53.040Z,170
2016-04-14T13:43:53.698Z,170
2016-04-14T13:44:53.607Z,165
2016-04-14T13:45:53.156Z,165
2016-04-14T13:46:53.190Z,170
2016-04-14T13:47:54.317Z,160
2016-04-14T13:48:53.164Z,160
2016-04-14T13:49:53.448Z,160
2016-04-14T13:50:53.186Z,165
2016-04-14T13:51:53.220Z,165
2016-04-14T13:52:53.160Z,175
2016-04-14T13:53:53.209Z,180
2016-04-14T13:54:53.227Z,185
2016-04-14T13:55:53.230Z,195
2016-04-14T13:56:53.201Z,205
2016-04-14T13:57:53.407Z,215
2016-04-14T13:58:53.222Z,225
2016-04-14T13:59:53.209Z,230
2016-04-14T14:00:53.541Z,230
2016-04-14T14:01:53.199Z,230
2016-04-14T14:02:53.233Z,235
2016-04-14T14:03:53.235Z,245
2016-04-14T14:04:53.238Z,250
2016-04-14T14:05:53.788Z,265
2016-04-14T14:06:53.448Z,270
2016-04-14T14:07:53.263Z,275
2016-04-14T14:08:53.329Z,275
2016-04-14T14:09:53.299Z,275